createdAt,value
2023-01-17T00:02:01.145Z,99.90
2023-01-17T00:04:47.493Z,99.90
2023-01-17T00:07:35.972Z,1.00
2023-01-17T00:10:07.490Z,1.00
2023-01-17T00:12:35.416Z,1.00
2023-01-17T00:15:03.014Z,1.00
2023-01-17T00:17:30.606Z,1.00
2023-01-17T00:20:19.235Z,1.00
2023-01-17T00:23:05.371Z,19.90
2023-01-17T00:25:55.817Z,99.90
2023-01-17T00:28:23.493Z,99.90
2023-01-17T00:30:50.515Z,99.90
2023-01-17T00:33:17.481Z,99.90
2023-01-17T00:35:44.355Z,99.90
2023-01-17T00:38:17.008Z,99.90
2023-01-17T00:40:45.399Z,99.90
2023-01-17T00:43:32.909Z,99.90
2023-01-17T00:46:18.246Z,99.90
2023-01-17T00:49:03.994Z,99.90
2023-01-17T00:51:51.049Z,99.90
2023-01-17T00:54:37.265Z,99.90
2023-01-17T00:57:23.805Z,99.90
2023-01-17T01:00:09.374Z,1.00
2023-01-17T01:02:56.186Z,1.00
2023-01-17T01:05:41.989Z,1.00
2023-01-17T01:08:54.011Z,1.00
2023-01-17T01:11:40.448Z,1.00
2023-01-17T01:14:29.068Z,1.00
2023-01-17T01:17:14.629Z,1.00
2023-01-17T01:20:00.151Z,1.00
2023-01-17T01:22:46.085Z,1.00
2023-01-17T01:25:31.693Z,1.00
2023-01-17T01:28:30.314Z,1.00
2023-01-17T01:31:21.688Z,35.20
2023-01-17T01:33:50.097Z,90.30
2023-01-17T01:36:17.280Z,99.90
2023-01-17T01:38:44.251Z,99.90
2023-01-17T01:41:11.425Z,99.90
2023-01-17T01:43:48.481Z,99.90
2023-01-17T01:46:22.993Z,99.90
2023-01-17T01:48:55.916Z,99.90
2023-01-17T01:51:27.785Z,99.90
2023-01-17T01:54:00.936Z,99.90
2023-01-17T01:56:29.717Z,99.90
2023-01-17T01:58:59.035Z,99.90
2023-01-17T02:01:26.292Z,94.80
2023-01-17T02:03:53.338Z,57.30
2023-01-17T02:06:31.723Z,47.80
2023-01-17T02:09:02.930Z,29.30
2023-01-17T02:11:30.242Z,10.60
2023-01-17T02:13:57.263Z,1.00
2023-01-17T02:16:36.909Z,1.00
2023-01-17T02:19:21.952Z,1.00
2023-01-17T02:22:07.876Z,1.00
2023-01-17T02:24:52.885Z,1.00
2023-01-17T02:27:48.056Z,1.00
2023-01-17T02:30:37.343Z,1.00
2023-01-17T02:33:10.137Z,1.00
2023-01-17T02:35:55.025Z,1.00
2023-01-17T02:38:24.796Z,1.00
2023-01-17T02:41:05.595Z,1.00
2023-01-17T02:43:33.996Z,1.00
2023-01-17T02:46:01.029Z,1.00
2023-01-17T02:48:30.848Z,1.00
2023-01-17T02:51:07.244Z,1.00
2023-01-17T02:53:49.442Z,1.00
2023-01-17T02:56:39.303Z,1.00
2023-01-17T02:59:39.975Z,1.00
2023-01-17T03:02:22.074Z,1.00
2023-01-17T03:04:56.664Z,1.00
2023-01-17T03:07:27.307Z,1.00
2023-01-17T03:09:59.538Z,1.00
2023-01-17T03:12:31.040Z,1.00
2023-01-17T03:14:58.100Z,1.00
2023-01-17T03:17:31.877Z,1.00
2023-01-17T03:19:59.141Z,1.00
2023-01-17T03:22:26.063Z,1.00
2023-01-17T03:24:53.071Z,1.00
2023-01-17T03:27:19.997Z,1.00
2023-01-17T03:29:46.941Z,1.00
2023-01-17T03:32:13.920Z,1.00
2023-01-17T03:34:40.804Z,1.00
2023-01-17T03:37:07.753Z,1.00
2023-01-17T03:39:34.657Z,1.00
2023-01-17T03:42:01.689Z,1.00
2023-01-17T03:44:28.598Z,1.00
2023-01-17T03:46:55.518Z,1.00
2023-01-17T03:49:22.988Z,1.00
2023-01-17T03:51:49.877Z,1.00
2023-01-17T03:54:16.788Z,1.00
2023-01-17T03:56:43.719Z,1.00
2023-01-17T03:59:13.084Z,1.00
2023-01-17T04:01:40.398Z,1.00
2023-01-17T04:04:07.335Z,1.00
2023-01-17T04:06:34.232Z,1.00
2023-01-17T04:09:01.164Z,1.00
2023-01-17T04:11:28.084Z,1.00
2023-01-17T04:13:55.427Z,1.00
2023-01-17T04:16:26.477Z,1.00
2023-01-17T04:18:53.464Z,1.00
2023-01-17T04:21:20.596Z,1.00
2023-01-17T04:23:47.937Z,1.00
2023-01-17T04:26:14.914Z,1.00
2023-01-17T04:28:41.845Z,1.00
2023-01-17T04:31:16.125Z,1.00
2023-01-17T04:33:43.208Z,1.00
2023-01-17T04:36:10.192Z,1.00
2023-01-17T04:38:37.186Z,1.00
2023-01-17T04:41:04.255Z,1.00
2023-01-17T04:43:31.367Z,1.00
2023-01-17T04:45:58.771Z,1.00
2023-01-17T04:48:27.265Z,1.00
2023-01-17T04:51:05.500Z,1.00
2023-01-17T04:53:32.649Z,1.00
2023-01-17T04:55:59.698Z,1.00
2023-01-17T04:58:27.760Z,1.00
2023-01-17T05:00:55.015Z,1.00
2023-01-17T05:03:23.188Z,1.00
2023-01-17T05:05:50.116Z,1.00
2023-01-17T05:08:17.115Z,2.30
2023-01-17T05:10:46.335Z,22.40
2023-01-17T05:13:13.838Z,25.20
2023-01-17T05:15:40.915Z,13.90
2023-01-17T05:18:18.024Z,29.70
2023-01-17T05:20:45.227Z,31.30
2023-01-17T05:23:12.327Z,32.70
2023-01-17T05:25:44.805Z,36.30
2023-01-17T05:28:13.151Z,51.80
2023-01-17T05:30:40.155Z,23.40
2023-01-17T05:33:08.351Z,32.80
2023-01-17T05:35:35.399Z,53.90
2023-01-17T05:38:02.687Z,99.90
2023-01-17T05:40:31.412Z,99.90
2023-01-17T05:43:00.316Z,99.90
2023-01-17T05:45:29.488Z,99.90
2023-01-17T05:47:57.985Z,99.90
2023-01-17T05:50:28.315Z,99.90
2023-01-17T05:53:01.129Z,99.90
2023-01-17T05:55:29.274Z,99.90
2023-01-17T05:57:56.351Z,99.90
2023-01-17T06:00:24.354Z,99.90
2023-01-17T06:02:54.375Z,99.90
2023-01-17T06:05:22.334Z,99.90
2023-01-17T06:07:49.820Z,99.90
2023-01-17T06:10:18.500Z,99.90
2023-01-17T06:12:46.558Z,99.90
2023-01-17T06:15:15.697Z,99.90
2023-01-17T06:17:42.905Z,99.90
2023-01-17T06:20:11.868Z,1.00
2023-01-17T06:22:38.880Z,1.00
2023-01-17T06:25:07.019Z,1.00
2023-01-17T06:27:34.057Z,1.00
2023-01-17T06:30:01.025Z,1.00
2023-01-17T06:32:28.001Z,1.00
2023-01-17T06:34:54.980Z,1.00
2023-01-17T06:37:21.934Z,1.00
2023-01-17T06:39:49.195Z,1.00
2023-01-17T06:42:16.331Z,1.00
2023-01-17T06:44:43.289Z,1.00
2023-01-17T06:47:10.294Z,1.00
2023-01-17T06:49:37.855Z,1.00
2023-01-17T06:52:05.006Z,1.00
2023-01-17T06:54:31.926Z,1.00
2023-01-17T06:56:58.855Z,1.00
2023-01-17T06:59:25.780Z,1.00
2023-01-17T07:01:52.759Z,1.00
2023-01-17T07:04:19.901Z,1.00
2023-01-17T07:06:46.830Z,1.00
2023-01-17T07:09:13.752Z,1.00
2023-01-17T07:11:40.752Z,1.00
2023-01-17T07:14:13.038Z,1.00
2023-01-17T07:16:40.089Z,1.00
2023-01-17T07:19:07.071Z,1.00
2023-01-17T07:21:34.014Z,1.00
2023-01-17T07:24:00.978Z,1.00
2023-01-17T07:26:27.891Z,1.00
2023-01-17T07:28:54.797Z,1.00
2023-01-17T07:31:21.714Z,1.00
2023-01-17T07:33:48.656Z,1.00
2023-01-17T07:36:15.766Z,1.00
2023-01-17T07:38:44.949Z,1.00
2023-01-17T07:41:11.873Z,1.00
2023-01-17T07:43:38.940Z,1.00
2023-01-17T07:46:08.035Z,1.00
2023-01-17T07:48:35.096Z,1.00
2023-01-17T07:51:02.211Z,99.90
2023-01-17T07:53:32.639Z,99.90
2023-01-17T07:56:08.053Z,99.90
2023-01-17T07:58:36.183Z,99.90
2023-01-17T08:01:08.772Z,99.90
2023-01-17T08:03:39.982Z,99.90
2023-01-17T08:06:20.854Z,99.90
2023-01-17T08:08:48.066Z,99.90
2023-01-17T08:11:15.379Z,99.90
2023-01-17T08:13:42.415Z,99.90
2023-01-17T08:16:13.402Z,1.00
2023-01-17T08:18:40.610Z,1.00
2023-01-17T08:21:15.440Z,99.90
2023-01-17T08:23:42.840Z,99.90
2023-01-17T08:26:09.767Z,99.90
2023-01-17T08:28:36.676Z,99.90
2023-01-17T08:31:08.783Z,99.90
2023-01-17T08:33:36.498Z,99.90
2023-01-17T08:36:03.650Z,99.90
2023-01-17T08:38:30.574Z,99.90
2023-01-17T08:41:01.262Z,99.90
2023-01-17T08:43:28.629Z,99.90
2023-01-17T08:45:56.190Z,99.90
2023-01-17T08:48:26.326Z,99.90
2023-01-17T08:50:53.272Z,63.20
2023-01-17T08:53:21.766Z,1.00
2023-01-17T08:55:48.822Z,1.00
2023-01-17T08:58:15.779Z,1.00
2023-01-17T09:00:42.756Z,1.00
2023-01-17T09:03:14.601Z,1.00
2023-01-17T09:05:41.605Z,1.00
2023-01-17T09:08:08.629Z,1.00
2023-01-17T09:10:35.642Z,1.00
2023-01-17T09:13:05.484Z,1.00
2023-01-17T09:15:32.396Z,1.00
2023-01-17T09:18:00.979Z,1.00
2023-01-17T09:20:30.221Z,1.00
2023-01-17T09:22:57.621Z,1.00
2023-01-17T09:25:24.611Z,1.00
2023-01-17T09:27:51.595Z,1.00
2023-01-17T09:30:18.585Z,1.00
2023-01-17T09:32:52.760Z,1.00
2023-01-17T09:35:19.856Z,99.90
2023-01-17T09:37:50.672Z,99.90
2023-01-17T09:40:22.965Z,99.90
2023-01-17T09:42:53.748Z,99.90
2023-01-17T09:45:21.566Z,99.90
2023-01-17T09:47:54.467Z,99.90
2023-01-17T09:50:47.968Z,99.90
2023-01-17T09:53:22.306Z,99.90
2023-01-17T09:55:55.099Z,1.20
2023-01-17T09:58:45.086Z,1.00
2023-01-17T10:01:25.352Z,1.00
2023-01-17T10:03:58.177Z,1.00
2023-01-17T10:06:40.253Z,1.00
2023-01-17T10:09:41.059Z,1.00
2023-01-17T10:12:31.233Z,1.00
2023-01-17T10:15:28.199Z,1.00
2023-01-17T10:18:07.071Z,1.00
2023-01-17T10:21:00.422Z,99.90
2023-01-17T10:23:44.457Z,99.90
2023-01-17T10:26:18.753Z,99.90
2023-01-17T10:28:51.605Z,99.90
2023-01-17T10:31:34.838Z,99.90
2023-01-17T10:34:17.274Z,99.90
2023-01-17T10:36:48.766Z,90.80
2023-01-17T10:39:24.751Z,40.50
2023-01-17T10:42:20.032Z,9.80
2023-01-17T10:44:53.592Z,1.00
2023-01-17T10:47:23.599Z,1.00
2023-01-17T10:49:55.350Z,1.00
2023-01-17T10:52:31.254Z,1.00
2023-01-17T10:55:36.435Z,1.00
2023-01-17T10:58:03.823Z,1.00
2023-01-17T11:00:51.934Z,1.00
2023-01-17T11:03:20.952Z,1.00
2023-01-17T11:06:21.418Z,1.00
2023-01-17T11:08:58.415Z,1.00
2023-01-17T11:11:32.718Z,1.00
2023-01-17T11:14:16.232Z,1.00
2023-01-17T11:16:43.726Z,1.00
2023-01-17T11:19:22.029Z,1.00
2023-01-17T11:22:09.256Z,1.00
2023-01-17T11:24:48.647Z,1.00
2023-01-17T11:27:38.506Z,1.00
2023-01-17T11:30:16.107Z,1.00
2023-01-17T11:33:06.323Z,1.00
2023-01-17T11:35:36.723Z,1.00
2023-01-17T11:38:05.798Z,1.00
2023-01-17T11:40:43.696Z,1.00
2023-01-17T11:43:19.695Z,1.00
2023-01-17T11:46:00.893Z,1.00
2023-01-17T11:48:37.588Z,1.00
2023-01-17T11:51:15.420Z,1.00
2023-01-17T11:53:48.131Z,1.00
2023-01-17T11:56:46.450Z,1.00
2023-01-17T11:59:33.511Z,1.00
2023-01-17T12:02:36.470Z,1.00
2023-01-17T12:05:27.953Z,1.00
2023-01-17T12:08:38.048Z,99.90
2023-01-17T12:11:17.135Z,99.90
2023-01-17T12:14:04.522Z,99.90
2023-01-17T12:16:55.670Z,99.90
2023-01-17T12:19:42.483Z,99.90
2023-01-17T12:22:42.839Z,99.90
2023-01-17T12:25:28.864Z,99.90
2023-01-17T12:28:15.689Z,68.50
2023-01-17T12:30:52.191Z,6.60
2023-01-17T12:33:32.840Z,1.00
2023-01-17T12:36:05.279Z,1.00
2023-01-17T12:38:37.120Z,1.00
2023-01-17T12:41:28.993Z,1.00
2023-01-17T12:44:00.136Z,1.00
2023-01-17T12:46:49.524Z,1.00
2023-01-17T12:49:21.909Z,1.00
2023-01-17T12:51:57.860Z,1.00
2023-01-17T12:54:36.001Z,1.00
2023-01-17T12:57:15.052Z,1.00
2023-01-17T12:59:56.551Z,1.00
2023-01-17T13:02:39.420Z,1.00
2023-01-17T13:05:26.147Z,1.00
2023-01-17T13:08:13.737Z,1.00
2023-01-17T13:11:21.178Z,1.00
2023-01-17T13:13:51.465Z,1.00
2023-01-17T13:16:40.593Z,1.00
2023-01-17T13:19:34.657Z,1.00
2023-01-17T13:22:04.467Z,1.00
2023-01-17T13:24:44.409Z,1.00
2023-01-17T13:27:35.701Z,1.00
2023-01-17T13:30:44.192Z,1.00
2023-01-17T13:33:22.078Z,1.00
2023-01-17T13:36:13.064Z,1.00
2023-01-17T13:38:57.484Z,1.00
2023-01-17T13:41:54.929Z,1.00
2023-01-17T13:44:27.843Z,1.00
2023-01-17T13:46:55.759Z,3.00
2023-01-17T13:49:35.240Z,13.60
2023-01-17T13:52:12.429Z,19.90
2023-01-17T13:54:55.242Z,28.00
2023-01-17T13:57:30.016Z,34.50
2023-01-17T13:59:59.163Z,44.60
2023-01-17T14:02:39.497Z,53.40
2023-01-17T14:05:15.397Z,54.30
2023-01-17T14:07:56.069Z,53.20
2023-01-17T14:10:38.195Z,55.60
2023-01-17T14:13:25.098Z,56.30
2023-01-17T14:15:52.452Z,67.30
2023-01-17T14:18:48.678Z,86.40
2023-01-17T14:21:21.693Z,69.30
2023-01-17T14:24:04.730Z,68.80
2023-01-17T14:26:43.983Z,70.80
2023-01-17T14:29:52.379Z,69.00
2023-01-17T14:32:22.563Z,81.40
2023-01-17T14:34:51.837Z,83.60
2023-01-17T14:37:27.391Z,90.30
2023-01-17T14:39:54.409Z,90.00
2023-01-17T14:42:24.303Z,92.80
2023-01-17T14:44:58.382Z,94.20
2023-01-17T14:47:31.193Z,99.10
2023-01-17T14:50:36.252Z,99.90
2023-01-17T14:53:12.632Z,99.90
2023-01-17T14:55:48.516Z,99.90
2023-01-17T14:58:27.186Z,99.90
2023-01-17T15:01:02.923Z,99.90
2023-01-17T15:03:33.471Z,99.90
2023-01-17T15:06:11.816Z,99.90
2023-01-17T15:08:39.251Z,99.90
2023-01-17T15:11:10.693Z,99.90
2023-01-17T15:13:47.444Z,99.90
2023-01-17T15:16:30.126Z,99.90
2023-01-17T15:18:57.998Z,99.90
2023-01-17T15:21:32.946Z,99.90
2023-01-17T15:24:07.194Z,99.90
2023-01-17T15:26:36.133Z,99.90
2023-01-17T15:29:11.478Z,99.90
2023-01-17T15:31:45.071Z,99.90
2023-01-17T15:34:32.384Z,99.90
2023-01-17T15:37:05.837Z,99.90
2023-01-17T15:39:36.176Z,99.90
2023-01-17T15:42:06.456Z,99.90
2023-01-17T15:44:48.173Z,99.90
2023-01-17T15:47:38.703Z,99.90
2023-01-17T15:50:21.391Z,99.90
2023-01-17T15:52:56.631Z,99.90
2023-01-17T15:55:40.401Z,99.90
2023-01-17T15:58:26.107Z,99.90
2023-01-17T16:00:53.494Z,99.90
2023-01-17T16:03:29.386Z,99.90
2023-01-17T16:06:01.000Z,99.90
2023-01-17T16:08:30.122Z,99.90
2023-01-17T16:11:06.567Z,99.90
2023-01-17T16:13:37.898Z,99.90
2023-01-17T16:16:18.295Z,99.90
2023-01-17T16:18:46.859Z,99.90
2023-01-17T16:21:22.157Z,99.90
2023-01-17T16:23:49.544Z,99.90
2023-01-17T16:26:17.065Z,99.90
2023-01-17T16:28:44.415Z,99.90
2023-01-17T16:31:11.636Z,99.90
2023-01-17T16:33:39.382Z,99.90
2023-01-17T16:36:06.548Z,99.90
2023-01-17T16:38:33.446Z,99.90
2023-01-17T16:41:03.848Z,99.90
2023-01-17T16:43:30.757Z,99.90
2023-01-17T16:45:58.131Z,99.90
2023-01-17T16:48:25.104Z,99.90
2023-01-17T16:50:53.080Z,99.90
2023-01-17T16:53:24.659Z,99.90
2023-01-17T16:55:58.039Z,99.90
2023-01-17T16:58:25.102Z,99.90
2023-01-17T17:00:52.489Z,99.90
2023-01-17T17:03:21.328Z,99.90
2023-01-17T17:05:56.855Z,99.90
2023-01-17T17:08:24.366Z,99.90
2023-01-17T17:10:51.874Z,99.90
2023-01-17T17:13:18.852Z,99.90
2023-01-17T17:15:46.079Z,99.90
2023-01-17T17:18:15.256Z,99.90
2023-01-17T17:20:43.152Z,99.90
2023-01-17T17:23:10.581Z,99.90
2023-01-17T17:25:38.504Z,99.90
2023-01-17T17:28:06.138Z,99.90
2023-01-17T17:30:34.813Z,99.90
2023-01-17T17:33:04.779Z,99.90
2023-01-17T17:35:35.174Z,99.90
2023-01-17T17:38:02.192Z,99.90
2023-01-17T17:40:29.186Z,99.90
2023-01-17T17:42:56.199Z,99.90
2023-01-17T17:45:23.214Z,99.90
2023-01-17T17:47:50.195Z,99.90
2023-01-17T17:50:17.197Z,99.90
2023-01-17T17:52:44.245Z,99.90
2023-01-17T17:55:13.234Z,99.90
2023-01-17T17:57:40.153Z,99.90
2023-01-17T18:00:07.843Z,99.90
2023-01-17T18:02:34.745Z,99.90
2023-01-17T18:05:02.393Z,99.90
2023-01-17T18:07:32.726Z,99.90
2023-01-17T18:09:59.783Z,99.90
2023-01-17T18:12:26.984Z,99.90
2023-01-17T18:14:53.966Z,99.90
2023-01-17T18:17:20.942Z,99.90
2023-01-17T18:19:47.832Z,99.90
2023-01-17T18:22:14.704Z,99.90
2023-01-17T18:24:41.696Z,99.90
2023-01-17T18:27:10.468Z,99.90
2023-01-17T18:29:37.678Z,99.90
2023-01-17T18:32:04.811Z,99.90
2023-01-17T18:34:33.795Z,99.90
2023-01-17T18:37:01.075Z,99.90
2023-01-17T18:39:30.140Z,1.00
2023-01-17T18:41:57.641Z,1.00
2023-01-17T18:44:24.833Z,1.00
2023-01-17T18:46:54.378Z,1.00
2023-01-17T18:49:21.572Z,1.00
2023-01-17T18:51:51.887Z,48.90
2023-01-17T18:54:20.211Z,99.90
2023-01-17T18:56:47.585Z,99.90
2023-01-17T18:59:18.364Z,1.00
2023-01-17T19:01:46.098Z,1.00
2023-01-17T19:04:15.917Z,1.00
2023-01-17T19:06:45.046Z,97.60
2023-01-17T19:09:13.926Z,99.90
2023-01-17T19:11:43.156Z,99.90
2023-01-17T19:14:10.966Z,99.90
2023-01-17T19:16:40.280Z,1.00
2023-01-17T19:19:11.227Z,1.00
2023-01-17T19:21:38.308Z,99.90
2023-01-17T19:24:05.951Z,1.00
2023-01-17T19:26:33.381Z,1.00
2023-01-17T19:29:00.695Z,1.00
2023-01-17T19:31:30.261Z,1.00
2023-01-17T19:33:58.638Z,1.00
2023-01-17T19:36:28.945Z,50.60
2023-01-17T19:39:04.328Z,1.00
2023-01-17T19:41:32.564Z,16.20
2023-01-17T19:44:02.337Z,53.20
2023-01-17T19:46:30.161Z,25.90
2023-01-17T19:48:57.970Z,99.90
2023-01-17T19:51:25.507Z,99.90
2023-01-17T19:53:53.774Z,1.00
2023-01-17T19:56:24.011Z,1.00
2023-01-17T19:58:52.281Z,1.00
2023-01-17T20:01:22.294Z,1.00
2023-01-17T20:03:51.419Z,99.30
2023-01-17T20:06:21.465Z,90.60
2023-01-17T20:08:48.670Z,96.90
2023-01-17T20:11:21.468Z,99.90
2023-01-17T20:13:51.433Z,99.90
2023-01-17T20:16:19.007Z,99.90
2023-01-17T20:18:46.184Z,1.00
2023-01-17T20:21:19.241Z,99.90
2023-01-17T20:23:47.929Z,99.90
2023-01-17T20:26:18.238Z,99.90
2023-01-17T20:28:47.034Z,99.90
2023-01-17T20:31:16.553Z,99.90
2023-01-17T20:33:45.267Z,1.00
2023-01-17T20:36:15.024Z,99.90
2023-01-17T20:38:46.031Z,99.90
2023-01-17T20:41:22.946Z,1.00
2023-01-17T20:43:54.816Z,1.00
2023-01-17T20:46:24.916Z,99.90
2023-01-17T20:48:54.338Z,1.00
2023-01-17T20:51:23.386Z,1.00
2023-01-17T20:53:58.218Z,99.90
2023-01-17T20:56:26.429Z,24.80
2023-01-17T20:58:54.304Z,1.00
2023-01-17T21:01:22.525Z,1.00
2023-01-17T21:03:51.788Z,1.00
2023-01-17T21:06:22.967Z,82.40
2023-01-17T21:08:50.290Z,99.90
2023-01-17T21:11:23.306Z,99.90
2023-01-17T21:13:51.454Z,1.00
2023-01-17T21:16:23.141Z,99.90
2023-01-17T21:18:51.714Z,99.90
2023-01-17T21:21:22.190Z,1.00
2023-01-17T21:23:51.569Z,99.90
2023-01-17T21:26:20.484Z,99.90
2023-01-17T21:28:48.966Z,99.90
2023-01-17T21:31:24.391Z,99.90
2023-01-17T21:33:59.960Z,99.90
2023-01-17T21:36:29.509Z,99.90
2023-01-17T21:38:58.330Z,99.90
2023-01-17T21:41:28.722Z,99.90
2023-01-17T21:43:57.491Z,99.90
2023-01-17T21:46:25.600Z,99.90
2023-01-17T21:48:52.809Z,99.90
2023-01-17T21:51:19.909Z,99.90
2023-01-17T21:53:46.953Z,99.90
2023-01-17T21:56:33.621Z,99.90
2023-01-17T21:59:00.912Z,99.90
2023-01-17T22:01:30.025Z,99.90
2023-01-17T22:03:59.139Z,99.90
2023-01-17T22:06:28.925Z,99.90
2023-01-17T22:08:56.287Z,99.90
2023-01-17T22:11:25.510Z,99.90
2023-01-17T22:13:53.276Z,99.90
2023-01-17T22:16:26.035Z,99.90
2023-01-17T22:18:53.182Z,99.90
2023-01-17T22:21:22.852Z,99.90
2023-01-17T22:23:55.104Z,99.90
2023-01-17T22:26:24.164Z,99.90
2023-01-17T22:28:51.122Z,99.90
2023-01-17T22:31:23.802Z,99.90
2023-01-17T22:33:56.439Z,99.90
2023-01-17T22:36:24.267Z,99.90
2023-01-17T22:38:51.490Z,99.90
2023-01-17T22:41:21.486Z,99.90
2023-01-17T22:43:50.583Z,99.90
2023-01-17T22:46:23.061Z,99.90
2023-01-17T22:48:50.263Z,99.90
2023-01-17T22:51:19.487Z,99.90
2023-01-17T22:53:52.443Z,99.90
2023-01-17T22:56:22.801Z,99.90
2023-01-17T22:58:50.475Z,99.90
2023-01-17T23:01:22.875Z,99.90
2023-01-17T23:03:55.363Z,99.90
2023-01-17T23:06:34.383Z,99.90
2023-01-17T23:09:07.498Z,99.90
2023-01-17T23:11:43.447Z,99.90
2023-01-17T23:14:53.793Z,99.90
2023-01-17T23:17:41.117Z,99.90
2023-01-17T23:20:09.953Z,99.90
2023-01-17T23:22:37.277Z,99.90
2023-01-17T23:25:11.065Z,99.90
2023-01-17T23:28:05.124Z,99.90
2023-01-17T23:30:36.297Z,99.90
2023-01-17T23:33:05.972Z,99.90
2023-01-17T23:35:35.516Z,99.90
2023-01-17T23:38:21.491Z,99.90
2023-01-17T23:41:24.194Z,99.90
2023-01-17T23:43:58.736Z,99.90
2023-01-17T23:46:27.021Z,99.90
2023-01-17T23:48:55.208Z,99.90
2023-01-17T23:51:22.437Z,99.90
2023-01-17T23:53:51.006Z,99.90
2023-01-17T23:56:21.804Z,99.90
2023-01-17T23:58:48.751Z,99.90
